TimeEDT,TemperatureF,Dew PointF,Humidity,Sea Level PressureIn,VisibilityMPH,Wind Direction,Wind SpeedMPH,Gust SpeedMPH,PrecipitationIn,Events,Conditions,WindDirDegrees,DateUTC
12:55 AM,51.8,45.9,80,30.00,10.0,West,6.9,-,N/A,,Overcast,280,2012-10-22 04:55:00
1:55 AM,50.2,46.2,86,30.00,10.0,WNW,6.9,-,N/A,,Mostly Cloudy,290,2012-10-22 05:55:00
2:55 AM,49.8,46.0,87,30.01,10.0,WNW,9.2,-,N/A,,Overcast,290,2012-10-22 06:55:00
3:55 AM,48.2,45.9,92,30.02,10.0,Variable,5.8,-,N/A,,Overcast,0,2012-10-22 07:55:00
4:55 AM,46.6,45.9,97,30.03,10.0,WSW,6.9,-,N/A,,Scattered Clouds,250,2012-10-22 08:55:00
5:55 AM,45.5,45.3,99,30.04,10.0,West,5.8,-,N/A,,Clear,270,2012-10-22 09:55:00
6:55 AM,45.0,45.0,100,30.05,10.0,West,5.8,-,N/A,,Clear,260,2012-10-22 10:55:00
7:55 AM,45.3,45.3,100,30.07,10.0,Variable,4.6,-,N/A,,Clear,0,2012-10-22 11:55:00
8:55 AM,48.9,47.7,95,30.08,10.0,West,4.6,-,N/A,,Clear,280,2012-10-22 12:55:00
9:55 AM,52.0,47.8,86,30.07,10.0,West,8.1,-,N/A,,Partly Cloudy,260,2012-10-22 13:55:00
10:55 AM,54.7,47.8,78,30.07,10.0,West,6.9,-,N/A,,Clear,280,2012-10-22 14:55:00
11:55 AM,57.9,48.2,70,30.07,10.0,WNW,8.1,-,N/A,,Scattered Clouds,290,2012-10-22 15:55:00
12:55 PM,58.1,47.5,68,30.06,10.0,West,11.5,17.3,N/A,,Clear,270,2012-10-22 16:55:00
1:55 PM,59.4,47.8,66,30.05,7.0,West,12.7,17.3,N/A,,Mostly Cloudy,280,2012-10-22 17:55:00
2:25 PM,57.2,48.2,72,30.06,10.0,West,10.4,-,N/A,,Light Drizzle,270,2012-10-22 18:25:00
2:35 PM,57.2,48.2,72,30.06,10.0,Variable,6.9,-,N/A,,Clear,0,2012-10-22 18:35:00
2:55 PM,55.6,48.2,76,30.06,10.0,West,11.5,-,0.00,,Partly Cloudy,270,2012-10-22 18:55:00
3:55 PM,55.4,47.1,74,30.06,10.0,West,9.2,-,N/A,,Mostly Cloudy,260,2012-10-22 19:55:00
4:55 PM,55.4,47.8,76,30.07,10.0,Variable,4.6,-,N/A,,Mostly Cloudy,0,2012-10-22 20:55:00
5:55 PM,54.9,51.6,89,30.07,10.0,West,5.8,-,N/A,,Mostly Cloudy,260,2012-10-22 21:55:00
6:55 PM,52.9,50.4,91,30.09,10.0,WSW,4.6,-,N/A,,Mostly Cloudy,250,2012-10-22 22:55:00
7:55 PM,50.7,49.6,96,30.09,10.0,WSW,3.5,-,N/A,,Mostly Cloudy,240,2012-10-22 23:55:00
8:55 PM,49.8,48.2,94,30.09,10.0,WSW,4.6,-,N/A,,Scattered Clouds,240,2012-10-23 00:55:00
9:55 PM,46.2,45.9,99,30.09,10.0,SSW,4.6,-,N/A,,Clear,200,2012-10-23 01:55:00
10:55 PM,44.4,44.4,100,30.09,10.0,SSW,4.6,-,N/A,,Clear,210,2012-10-23 02:55:00
11:55 PM,43.3,43.3,100,30.10,10.0,SSW,4.6,-,N/A,,Clear,210,2012-10-23 03:55:00